Portada
METAR-TAF:

METAR-TAF

Aeroports :

Bangalore, Índia

latitud: 12-57-00N, longitud: 077-40-06E, altitud: 888 m

Observació

L'informe es va fer fa 22 minuts, a les 10:00 UTC
Vent 4 kt del Nord-Est
Temperatura 35°C
Humitat 32%
Pressió 1011 hPa
Visibilitat 10 km o més
Escasses núvols a una alçada de 1500 ft
Núvols disperses a una alçada de 2000 ft

METAR: VOBG 181000Z 05004KT 9999 FEW015 SCT020 35/16 Q1011

Hora: 15:52 (10:22 UTC)

Pronòstic

L'informe es va fer fa 2 hores i 22 minuts, a les 08:00 UTC
Pronòstic vàlid del 18 a les 09 UTC al 18 a les 18 UTC
Vent 5 kt del Oest/Nord-Oest
Visibilitat: 8000 m
Núvols disperses a una alçada de 1500 ft
Temporalment
l' 18 a les 09 UTC al 18 a les 15 UTC
Visibilitat: 4000 m
Núvols disperses a una alçada de 1500 ft
Núvols disperses a una alçada de 2000 ft
Escasses núvols a una alçada de 2500 ft, Cumulonimbus.
tempesta, pluja, pluja

TAF: VOBG 180800Z 1809/1818 29005KT 8000 SCT015 TEMPO 1809/1815 4000 TSRA RA SCT015 SCT020 FEW025CB

Observacions i pronòstics meteorològics de més de 4000 aeroports (METAR i TAF).

Les estacions disponibles són els punts grocs i vermells al mapa.

Posi el ratolí al punt desitjat per veure el nom de l'estació.

Feu clic per veure les observacions i els pronòstics meteorològics.

Per canviar el mapa: feu clic els botons verds amb una creu de color negre per apropar; al botó verd amb un guió per allunyar la imatge; o en les fletxes verdes per a mapes adjacents.


METAR-TAF: